SWA2190 KFAT-KSAN
Flight info
| Callsign | SWA2190 |
|---|---|
| Flight time | 0h 52m |
| Altitude | 29000 |
| Route | BULL3 NTELL FRAME EHF HUULK COMIX2 |
| Aircraft | B738/M-SADE2E3GIJ4RWZ/LB1D1 |
Departure
| Time | 2026-05-06 19:07 |
|---|---|
| Airport | Fresno Yosemite International Airport (KFAT) |
Arrival
| Time | 2026-05-06 19:59 |
|---|---|
| Airport | San Diego International Airport (KSAN) |
| Time | Latitude | Longitude | Altitude | Speed | Heading |
|---|---|---|---|---|---|
| 2026-05-06 18:26 | 36.77221 | -119.71825 | 334 ft | 0 kts | 195° |
| 2026-05-06 19:01 | 36.77227 | -119.71823 | 334 ft | 2 kts | 198° |
| 2026-05-06 19:01 | 36.77242 | -119.71816 | 334 ft | 2 kts | 206° |
| 2026-05-06 19:01 | 36.77255 | -119.71807 | 334 ft | 2 kts | 213° |
| 2026-05-06 19:01 | 36.77267 | -119.71796 | 334 ft | 2 kts | 216° |
| 2026-05-06 19:02 | 36.77278 | -119.71787 | 335 ft | 0 kts | 214° |
| 2026-05-06 19:04 | 36.77260 | -119.71773 | 334 ft | 8 kts | 128° |
| 2026-05-06 19:04 | 36.77203 | -119.71677 | 334 ft | 16 kts | 112° |
| 2026-05-06 19:04 | 36.77188 | -119.71536 | 334 ft | 19 kts | 122° |
| 2026-05-06 19:05 | 36.77095 | -119.71371 | 334 ft | 25 kts | 126° |
| 2026-05-06 19:05 | 36.76987 | -119.71184 | 334 ft | 27 kts | 125° |
| 2026-05-06 19:05 | 36.76876 | -119.70988 | 334 ft | 26 kts | 125° |
| 2026-05-06 19:05 | 36.76770 | -119.70802 | 335 ft | 25 kts | 116° |
| 2026-05-06 19:06 | 36.76760 | -119.70591 | 335 ft | 24 kts | 89° |
| 2026-05-06 19:06 | 36.76826 | -119.70420 | 336 ft | 22 kts | 34° |
| 2026-05-06 19:06 | 36.76969 | -119.70497 | 336 ft | 46 kts | 304° |
| 2026-05-06 19:06 | 36.77293 | -119.71070 | 335 ft | 112 kts | 305° |
| 2026-05-06 19:07 | 36.77858 | -119.72059 | 350 ft | 163 kts | 305° |
| 2026-05-06 19:07 | 36.78491 | -119.73194 | 963 ft | 162 kts | 305° |
| 2026-05-06 19:07 | 36.79139 | -119.74353 | 1524 ft | 167 kts | 305° |
| 2026-05-06 19:07 | 36.79857 | -119.75651 | 1677 ft | 195 kts | 305° |
| 2026-05-06 19:08 | 36.80646 | -119.77119 | 1978 ft | 215 kts | 300° |
| 2026-05-06 19:08 | 36.81002 | -119.78870 | 2756 ft | 213 kts | 266° |
| 2026-05-06 19:08 | 36.80436 | -119.80598 | 3227 ft | 227 kts | 229° |
| 2026-05-06 19:08 | 36.79130 | -119.81788 | 3740 ft | 240 kts | 204° |
| 2026-05-06 19:09 | 36.77448 | -119.82134 | 4095 ft | 257 kts | 169° |
| 2026-05-06 19:09 | 36.75790 | -119.81285 | 4518 ft | 269 kts | 146° |
| 2026-05-06 19:09 | 36.74258 | -119.79894 | 5148 ft | 274 kts | 141° |
| 2026-05-06 19:09 | 36.72757 | -119.78432 | 5859 ft | 280 kts | 140° |
| 2026-05-06 19:10 | 36.71220 | -119.76929 | 6805 ft | 283 kts | 140° |
| 2026-05-06 19:10 | 36.69692 | -119.75429 | 7740 ft | 285 kts | 139° |
| 2026-05-06 19:10 | 36.68136 | -119.73915 | 8620 ft | 288 kts | 140° |
| 2026-05-06 19:10 | 36.66539 | -119.72382 | 9418 ft | 295 kts | 140° |
| 2026-05-06 19:11 | 36.64926 | -119.70848 | 10330 ft | 295 kts | 140° |
| 2026-05-06 19:11 | 36.63270 | -119.69274 | 10968 ft | 307 kts | 139° |
| 2026-05-06 19:11 | 36.61507 | -119.67639 | 11494 ft | 322 kts | 143° |
| 2026-05-06 19:11 | 36.59505 | -119.66232 | 11983 ft | 340 kts | 151° |
| 2026-05-06 19:12 | 36.57300 | -119.65044 | 12418 ft | 357 kts | 155° |
| 2026-05-06 19:12 | 36.54938 | -119.63895 | 13001 ft | 366 kts | 156° |
| 2026-05-06 19:12 | 36.52575 | -119.62757 | 13691 ft | 371 kts | 155° |
| 2026-05-06 19:12 | 36.50141 | -119.61559 | 14505 ft | 376 kts | 155° |
| 2026-05-06 19:13 | 36.47732 | -119.60349 | 15300 ft | 378 kts | 154° |
| 2026-05-06 19:13 | 36.45334 | -119.59127 | 16278 ft | 374 kts | 154° |
| 2026-05-06 19:13 | 36.42940 | -119.57899 | 17110 ft | 374 kts | 153° |
| 2026-05-06 19:13 | 36.40506 | -119.56641 | 17729 ft | 380 kts | 153° |
| 2026-05-06 19:14 | 36.38052 | -119.55369 | 18356 ft | 385 kts | 153° |
| 2026-05-06 19:14 | 36.35602 | -119.54102 | 19002 ft | 389 kts | 153° |
| 2026-05-06 19:14 | 36.33091 | -119.52805 | 19639 ft | 393 kts | 153° |
| 2026-05-06 19:14 | 36.30569 | -119.51509 | 20251 ft | 397 kts | 153° |
| 2026-05-06 19:15 | 36.27995 | -119.50185 | 20868 ft | 400 kts | 153° |
| 2026-05-06 19:15 | 36.25427 | -119.48865 | 21434 ft | 404 kts | 153° |
| 2026-05-06 19:15 | 36.22790 | -119.47513 | 21990 ft | 408 kts | 153° |
| 2026-05-06 19:15 | 36.20173 | -119.46171 | 22552 ft | 412 kts | 153° |
| 2026-05-06 19:16 | 36.17514 | -119.44808 | 23127 ft | 414 kts | 153° |
| 2026-05-06 19:16 | 36.14926 | -119.43483 | 23656 ft | 417 kts | 153° |
| 2026-05-06 19:16 | 36.12250 | -119.42111 | 24166 ft | 421 kts | 153° |
| 2026-05-06 19:16 | 36.09518 | -119.40713 | 24580 ft | 428 kts | 153° |
| 2026-05-06 19:17 | 36.06754 | -119.39299 | 24937 ft | 435 kts | 153° |
| 2026-05-06 19:17 | 36.03940 | -119.37861 | 25479 ft | 437 kts | 153° |
| 2026-05-06 19:17 | 36.01140 | -119.36434 | 26129 ft | 436 kts | 153° |
| 2026-05-06 19:17 | 35.98380 | -119.35032 | 26802 ft | 433 kts | 153° |
| 2026-05-06 19:18 | 35.95560 | -119.33599 | 27453 ft | 432 kts | 153° |
| 2026-05-06 19:18 | 35.92792 | -119.32192 | 27992 ft | 432 kts | 153° |
| 2026-05-06 19:18 | 35.90031 | -119.30788 | 28569 ft | 431 kts | 153° |
| 2026-05-06 19:18 | 35.87257 | -119.29378 | 29061 ft | 431 kts | 153° |
| 2026-05-06 19:19 | 35.84458 | -119.27954 | 29139 ft | 434 kts | 153° |
| 2026-05-06 19:19 | 35.78910 | -119.25139 | 29133 ft | 429 kts | 153° |
| 2026-05-06 19:20 | 35.73364 | -119.22327 | 29136 ft | 430 kts | 153° |
| 2026-05-06 19:20 | 35.67862 | -119.19543 | 29135 ft | 428 kts | 152° |
| 2026-05-06 19:21 | 35.62323 | -119.16743 | 29138 ft | 429 kts | 152° |
| 2026-05-06 19:21 | 35.56827 | -119.13967 | 29137 ft | 429 kts | 153° |
| 2026-05-06 19:22 | 35.51312 | -119.11189 | 29138 ft | 429 kts | 153° |
| 2026-05-06 19:22 | 35.45804 | -119.08369 | 29140 ft | 427 kts | 151° |
| 2026-05-06 19:23 | 35.40391 | -119.05355 | 29140 ft | 427 kts | 149° |
| 2026-05-06 19:23 | 35.35006 | -119.02303 | 29138 ft | 426 kts | 149° |
| 2026-05-06 19:24 | 35.29614 | -118.99265 | 29130 ft | 427 kts | 150° |
| 2026-05-06 19:24 | 35.24222 | -118.96249 | 29131 ft | 426 kts | 149° |
| 2026-05-06 19:25 | 35.18845 | -118.93255 | 29128 ft | 427 kts | 150° |
| 2026-05-06 19:25 | 35.13439 | -118.90254 | 29128 ft | 425 kts | 150° |
| 2026-05-06 19:26 | 35.08038 | -118.87260 | 29128 ft | 426 kts | 150° |
| 2026-05-06 19:26 | 35.02649 | -118.84279 | 29129 ft | 426 kts | 149° |
| 2026-05-06 19:27 | 34.97253 | -118.81298 | 29136 ft | 426 kts | 150° |
| 2026-05-06 19:27 | 34.91848 | -118.78317 | 29141 ft | 426 kts | 150° |
| 2026-05-06 19:28 | 34.86461 | -118.75352 | 29143 ft | 424 kts | 150° |
| 2026-05-06 19:28 | 34.81081 | -118.72391 | 29143 ft | 424 kts | 150° |
| 2026-05-06 19:29 | 34.75737 | -118.69456 | 29162 ft | 424 kts | 149° |
| 2026-05-06 19:29 | 34.70355 | -118.66504 | 29144 ft | 424 kts | 149° |
| 2026-05-06 19:30 | 34.64957 | -118.63546 | 29131 ft | 426 kts | 150° |
| 2026-05-06 19:30 | 34.59537 | -118.60577 | 29125 ft | 425 kts | 149° |
| 2026-05-06 19:31 | 34.54380 | -118.57246 | 29116 ft | 419 kts | 143° |
| 2026-05-06 19:31 | 34.46882 | -118.51751 | 29120 ft | 420 kts | 142° |
| 2026-05-06 19:32 | 34.41880 | -118.48116 | 29122 ft | 420 kts | 143° |
| 2026-05-06 19:32 | 34.36828 | -118.44491 | 29120 ft | 420 kts | 143° |
| 2026-05-06 19:33 | 34.31824 | -118.40928 | 29123 ft | 420 kts | 143° |
| 2026-05-06 19:33 | 34.26793 | -118.37357 | 29121 ft | 419 kts | 143° |
| 2026-05-06 19:34 | 34.21750 | -118.33786 | 29117 ft | 419 kts | 143° |
| 2026-05-06 19:34 | 34.16718 | -118.30226 | 29116 ft | 419 kts | 143° |
| 2026-05-06 19:35 | 34.11693 | -118.26678 | 29112 ft | 420 kts | 143° |
| 2026-05-06 19:35 | 34.06671 | -118.23134 | 29110 ft | 419 kts | 143° |
| 2026-05-06 19:36 | 34.01609 | -118.19566 | 29105 ft | 419 kts | 143° |
| 2026-05-06 19:36 | 33.96596 | -118.16046 | 29102 ft | 418 kts | 143° |
| 2026-05-06 19:37 | 33.91582 | -118.12527 | 29102 ft | 418 kts | 143° |
| 2026-05-06 19:37 | 33.86538 | -118.08989 | 29100 ft | 421 kts | 143° |
| 2026-05-06 19:38 | 33.81477 | -118.05496 | 29099 ft | 420 kts | 144° |
| 2026-05-06 19:38 | 33.76350 | -118.02104 | 28956 ft | 419 kts | 145° |
| 2026-05-06 19:39 | 33.73817 | -118.00449 | 28559 ft | 414 kts | 145° |
| 2026-05-06 19:39 | 33.71283 | -117.98789 | 28000 ft | 415 kts | 145° |
| 2026-05-06 19:39 | 33.68718 | -117.97100 | 27322 ft | 419 kts | 145° |
| 2026-05-06 19:39 | 33.66157 | -117.95412 | 26604 ft | 424 kts | 145° |
| 2026-05-06 19:40 | 33.63594 | -117.93723 | 25885 ft | 425 kts | 145° |
| 2026-05-06 19:40 | 33.61008 | -117.92021 | 25422 ft | 422 kts | 145° |
| 2026-05-06 19:40 | 33.58446 | -117.90337 | 24934 ft | 418 kts | 146° |
| 2026-05-06 19:40 | 33.55913 | -117.88676 | 24428 ft | 414 kts | 146° |
| 2026-05-06 19:41 | 33.53391 | -117.87014 | 23914 ft | 410 kts | 145° |
| 2026-05-06 19:41 | 33.50918 | -117.85351 | 23404 ft | 406 kts | 145° |
| 2026-05-06 19:41 | 33.48470 | -117.83683 | 22906 ft | 402 kts | 144° |
| 2026-05-06 19:41 | 33.46064 | -117.82017 | 22410 ft | 398 kts | 143° |
| 2026-05-06 19:42 | 33.43807 | -117.80185 | 21933 ft | 391 kts | 137° |
| 2026-05-06 19:42 | 33.41704 | -117.78172 | 21426 ft | 386 kts | 134° |
| 2026-05-06 19:42 | 33.39691 | -117.76077 | 20914 ft | 382 kts | 132° |
| 2026-05-06 19:42 | 33.37740 | -117.73978 | 20418 ft | 378 kts | 131° |
| 2026-05-06 19:43 | 33.35807 | -117.71880 | 19954 ft | 375 kts | 131° |
| 2026-05-06 19:43 | 33.33865 | -117.69775 | 19442 ft | 373 kts | 132° |
| 2026-05-06 19:43 | 33.31949 | -117.67706 | 18934 ft | 370 kts | 132° |
| 2026-05-06 19:43 | 33.30042 | -117.65655 | 18438 ft | 368 kts | 132° |
| 2026-05-06 19:44 | 33.28157 | -117.63631 | 17918 ft | 365 kts | 133° |
| 2026-05-06 19:44 | 33.26282 | -117.61626 | 17444 ft | 362 kts | 132° |
| 2026-05-06 19:44 | 33.24421 | -117.59644 | 16967 ft | 359 kts | 133° |
| 2026-05-06 19:44 | 33.22542 | -117.57657 | 16459 ft | 357 kts | 133° |
| 2026-05-06 19:45 | 33.20678 | -117.55695 | 15984 ft | 355 kts | 133° |
| 2026-05-06 19:45 | 33.18837 | -117.53759 | 15502 ft | 353 kts | 134° |
| 2026-05-06 19:45 | 33.16999 | -117.51826 | 15016 ft | 351 kts | 133° |
| 2026-05-06 19:45 | 33.15168 | -117.49901 | 14523 ft | 349 kts | 133° |
| 2026-05-06 19:46 | 33.13351 | -117.48030 | 14049 ft | 348 kts | 136° |
| 2026-05-06 19:46 | 33.11417 | -117.46278 | 13576 ft | 348 kts | 140° |
| 2026-05-06 19:46 | 33.09424 | -117.44632 | 13094 ft | 347 kts | 142° |
| 2026-05-06 19:46 | 33.07450 | -117.43046 | 12616 ft | 345 kts | 142° |
| 2026-05-06 19:47 | 33.05458 | -117.41441 | 12139 ft | 343 kts | 141° |
| 2026-05-06 19:47 | 33.03493 | -117.39834 | 11656 ft | 341 kts | 141° |
| 2026-05-06 19:47 | 33.01553 | -117.38226 | 11187 ft | 340 kts | 141° |
| 2026-05-06 19:47 | 32.99636 | -117.36623 | 10774 ft | 335 kts | 140° |
| 2026-05-06 19:48 | 32.97749 | -117.35041 | 10572 ft | 322 kts | 140° |
| 2026-05-06 19:48 | 32.95965 | -117.33547 | 10480 ft | 306 kts | 141° |
| 2026-05-06 19:48 | 32.94273 | -117.32130 | 10377 ft | 293 kts | 140° |
| 2026-05-06 19:48 | 32.92625 | -117.30750 | 10261 ft | 282 kts | 140° |
| 2026-05-06 19:49 | 32.91053 | -117.29433 | 10015 ft | 278 kts | 140° |
| 2026-05-06 19:49 | 32.89473 | -117.28110 | 9638 ft | 279 kts | 141° |
| 2026-05-06 19:49 | 32.87880 | -117.26780 | 9279 ft | 279 kts | 140° |
| 2026-05-06 19:49 | 32.86300 | -117.25466 | 8937 ft | 278 kts | 140° |
| 2026-05-06 19:50 | 32.84707 | -117.24143 | 8591 ft | 277 kts | 141° |
| 2026-05-06 19:50 | 32.83143 | -117.22845 | 8256 ft | 276 kts | 141° |
| 2026-05-06 19:50 | 32.81657 | -117.21416 | 7916 ft | 271 kts | 130° |
| 2026-05-06 19:50 | 32.80648 | -117.19570 | 7570 ft | 262 kts | 106° |
| 2026-05-06 19:51 | 32.80185 | -117.17507 | 7237 ft | 258 kts | 98° |
| 2026-05-06 19:51 | 32.79830 | -117.15438 | 6907 ft | 255 kts | 99° |
| 2026-05-06 19:51 | 32.79441 | -117.13429 | 6588 ft | 251 kts | 101° |
| 2026-05-06 19:51 | 32.79005 | -117.11410 | 6267 ft | 249 kts | 102° |
| 2026-05-06 19:52 | 32.78565 | -117.09461 | 6063 ft | 241 kts | 102° |
| 2026-05-06 19:52 | 32.78144 | -117.07605 | 5995 ft | 227 kts | 101° |
| 2026-05-06 19:52 | 32.77735 | -117.05819 | 5938 ft | 219 kts | 102° |
| 2026-05-06 19:52 | 32.77314 | -117.04060 | 5898 ft | 226 kts | 103° |
| 2026-05-06 19:53 | 32.76874 | -117.02275 | 5702 ft | 225 kts | 103° |
| 2026-05-06 19:53 | 32.76435 | -117.00488 | 5435 ft | 226 kts | 102° |
| 2026-05-06 19:53 | 32.76004 | -116.98708 | 5208 ft | 226 kts | 104° |
| 2026-05-06 19:53 | 32.75353 | -116.96994 | 4935 ft | 229 kts | 123° |
| 2026-05-06 19:54 | 32.74126 | -116.95798 | 4661 ft | 234 kts | 155° |
| 2026-05-06 19:54 | 32.72542 | -116.95403 | 4369 ft | 237 kts | 180° |
| 2026-05-06 19:54 | 32.70904 | -116.95765 | 4018 ft | 238 kts | 202° |
| 2026-05-06 19:54 | 32.69621 | -116.96892 | 3785 ft | 225 kts | 234° |
| 2026-05-06 19:55 | 32.68983 | -116.98492 | 3608 ft | 210 kts | 259° |
| 2026-05-06 19:55 | 32.68898 | -117.00143 | 3433 ft | 197 kts | 278° |
| 2026-05-06 19:55 | 32.69121 | -117.01731 | 3164 ft | 191 kts | 285° |
| 2026-05-06 19:55 | 32.69524 | -117.03203 | 2884 ft | 187 kts | 292° |
| 2026-05-06 19:56 | 32.69927 | -117.04639 | 2643 ft | 183 kts | 287° |
| 2026-05-06 19:56 | 32.70273 | -117.06094 | 2363 ft | 181 kts | 287° |
| 2026-05-06 19:56 | 32.70604 | -117.07516 | 2113 ft | 177 kts | 287° |
| 2026-05-06 19:56 | 32.70944 | -117.08913 | 1868 ft | 173 kts | 287° |
| 2026-05-06 19:57 | 32.71254 | -117.10215 | 1667 ft | 158 kts | 286° |
| 2026-05-06 19:57 | 32.71549 | -117.11472 | 1364 ft | 158 kts | 286° |
| 2026-05-06 19:57 | 32.71832 | -117.12666 | 1140 ft | 145 kts | 287° |
| 2026-05-06 19:57 | 32.72116 | -117.13822 | 891 ft | 146 kts | 287° |
| 2026-05-06 19:58 | 32.72396 | -117.14970 | 658 ft | 145 kts | 285° |
| 2026-05-06 19:58 | 32.72667 | -117.16117 | 419 ft | 144 kts | 286° |
| 2026-05-06 19:58 | 32.72946 | -117.17263 | 220 ft | 144 kts | 285° |
| 2026-05-06 19:58 | 32.73219 | -117.18395 | 30 ft | 141 kts | 286° |
| 2026-05-06 19:59 | 32.73437 | -117.19300 | 24 ft | 75 kts | 285° |
| 2026-05-06 19:59 | 32.73533 | -117.19700 | 23 ft | 43 kts | 285° |
| 2026-05-06 19:59 | 32.73605 | -117.20000 | 22 ft | 28 kts | 287° |
| 2026-05-06 19:59 | 32.73633 | -117.20184 | 22 ft | 18 kts | 233° |
| 2026-05-06 20:00 | 32.73540 | -117.20203 | 22 ft | 11 kts | 94° |
| 2026-05-06 20:00 | 32.73530 | -117.20110 | 22 ft | 11 kts | 102° |
| 2026-05-06 20:00 | 32.73505 | -117.20007 | 22 ft | 15 kts | 106° |
| 2026-05-06 20:00 | 32.73471 | -117.19892 | 23 ft | 14 kts | 127° |
| 2026-05-06 20:01 | 32.73401 | -117.19859 | 23 ft | 4 kts | 176° |
| 2026-05-06 20:01 | 32.73388 | -117.19859 | 23 ft | 0 kts | 174° |
| 2026-05-06 20:01 | 32.73386 | -117.19858 | 23 ft | 0 kts | 175° |